Terminal Aerodrome Forecast
Issued by NWS

Home | Current Version | Previous Version | Text Only | Print | Product List | Glossary On
Versions: 1 2 3 4 5 6 7 8 9 10 11 12 13 14 15 16 17 18 19 20 21 22 23
000
FTUS45 KBOU 202323
TAFAPA
TAF
KAPA 202323Z 2100/2124 02008KT P6SM VCSH SCT080 BKN140
     FM210100 08006KT P6SM VCSH FEW080 BKN140
     FM210400 23006KT P6SM FEW140 SCT220
     FM210800 35009KT P6SM FEW050 SCT080
     FM211200 02008KT P6SM SCT030 BKN045
     FM211600 06008KT P6SM FEW050 SCT090
     FM212000 12008KT P6SM SCT090 SCT150=

USA.gov is the U.S. government's official web portal to all federal, state and local government web resources and services.